createdAt,value
2022-08-25T00:00:23.205Z,12.80
2022-08-25T00:03:06.494Z,13.90
2022-08-25T00:05:34.842Z,9.70
2022-08-25T00:08:06.492Z,13.30
2022-08-25T00:10:37.198Z,11.00
2022-08-25T00:13:07.041Z,15.30
2022-08-25T00:15:35.548Z,11.70
2022-08-25T00:18:05.484Z,14.90
2022-08-25T00:20:48.813Z,10.80
2022-08-25T00:23:17.922Z,13.60
2022-08-25T00:25:45.971Z,15.50
2022-08-25T00:28:17.034Z,15.60
2022-08-25T00:30:45.150Z,11.50
2022-08-25T00:33:14.094Z,14.70
2022-08-25T00:35:43.293Z,13.50
2022-08-25T00:38:12.943Z,10.60
2022-08-25T00:40:42.386Z,9.10
2022-08-25T00:43:10.304Z,9.70
2022-08-25T00:45:39.056Z,16.00
2022-08-25T00:48:07.116Z,15.00
2022-08-25T00:50:35.417Z,11.80
2022-08-25T00:53:05.833Z,11.00
2022-08-25T00:55:40.454Z,16.80
2022-08-25T00:58:16.414Z,14.50
2022-08-25T01:00:48.572Z,12.60
2022-08-25T01:03:19.329Z,14.70
2022-08-25T01:05:48.215Z,13.80
2022-08-25T01:08:21.367Z,12.80
2022-08-25T01:10:50.582Z,14.20
2022-08-25T01:13:47.836Z,14.60
2022-08-25T01:16:17.431Z,9.50
2022-08-25T01:18:49.812Z,13.60
2022-08-25T01:21:20.020Z,16.50
2022-08-25T01:23:49.772Z,11.40
2022-08-25T01:26:21.715Z,11.60
2022-08-25T01:29:19.372Z,12.20
2022-08-25T01:32:01.707Z,11.90
2022-08-25T01:34:33.435Z,13.00
2022-08-25T01:37:02.354Z,11.70
2022-08-25T01:39:37.065Z,8.90
2022-08-25T01:42:09.318Z,14.40
2022-08-25T01:44:41.801Z,12.10
2022-08-25T01:47:10.271Z,12.90
2022-08-25T01:49:38.449Z,17.60
2022-08-25T01:52:11.225Z,17.50
2022-08-25T01:54:39.092Z,15.90
2022-08-25T01:57:07.205Z,18.00
2022-08-25T01:59:35.233Z,16.70
2022-08-25T02:02:04.739Z,12.10
2022-08-25T02:04:34.210Z,11.40
2022-08-25T02:07:05.321Z,13.90
2022-08-25T02:09:33.693Z,17.50
2022-08-25T02:12:01.628Z,12.50
2022-08-25T02:14:29.597Z,14.80
2022-08-25T02:16:57.731Z,15.30
2022-08-25T02:19:26.757Z,15.90
2022-08-25T02:21:54.625Z,14.60
2022-08-25T02:24:22.492Z,10.00
2022-08-25T02:26:50.797Z,13.80
2022-08-25T02:29:18.733Z,13.60
2022-08-25T02:31:47.108Z,18.70
2022-08-25T02:34:15.409Z,10.80
2022-08-25T02:36:44.077Z,16.70
2022-08-25T02:39:12.781Z,15.80
2022-08-25T02:41:41.025Z,15.60
2022-08-25T02:44:09.508Z,16.60
2022-08-25T02:46:38.435Z,18.40
2022-08-25T02:49:07.721Z,14.30
2022-08-25T02:51:36.710Z,19.40
2022-08-25T02:54:06.156Z,13.70
2022-08-25T02:56:34.376Z,15.30
2022-08-25T02:59:03.259Z,16.40
2022-08-25T03:01:32.792Z,17.50
2022-08-25T03:04:01.966Z,16.20
2022-08-25T03:06:30.648Z,14.10
2022-08-25T03:08:59.047Z,17.70
2022-08-25T03:11:27.445Z,12.00
2022-08-25T03:13:56.713Z,13.90
2022-08-25T03:16:27.756Z,15.50
2022-08-25T03:18:57.463Z,11.80
2022-08-25T03:21:26.746Z,14.00
2022-08-25T03:23:55.228Z,13.40
2022-08-25T03:26:42.443Z,15.40
2022-08-25T03:29:10.906Z,14.30
2022-08-25T03:31:39.288Z,16.90
2022-08-25T03:34:07.478Z,14.20
2022-08-25T03:36:35.762Z,12.70
2022-08-25T03:39:04.357Z,20.30
2022-08-25T03:41:33.017Z,14.40
2022-08-25T03:44:02.342Z,14.10
2022-08-25T03:46:34.691Z,18.10
2022-08-25T03:49:04.741Z,12.20
2022-08-25T03:51:36.870Z,15.10
2022-08-25T03:54:05.510Z,14.30
2022-08-25T03:56:33.526Z,22.30
2022-08-25T03:59:01.501Z,16.80
2022-08-25T04:01:30.144Z,15.90
2022-08-25T04:03:58.152Z,15.30
2022-08-25T04:06:26.009Z,17.30
2022-08-25T04:08:53.880Z,13.50
2022-08-25T04:11:23.425Z,23.00
2022-08-25T04:13:53.130Z,19.60
2022-08-25T04:16:24.463Z,21.50
2022-08-25T04:18:56.310Z,16.20
2022-08-25T04:21:26.524Z,18.90
2022-08-25T04:23:57.062Z,19.50
2022-08-25T04:26:38.944Z,20.60
2022-08-25T04:29:10.195Z,18.50
2022-08-25T04:31:41.095Z,16.20
2022-08-25T04:34:14.827Z,17.40
2022-08-25T04:36:58.566Z,20.10
2022-08-25T04:39:26.742Z,16.10
2022-08-25T04:41:54.601Z,18.10
2022-08-25T04:44:22.515Z,18.00
2022-08-25T04:46:50.433Z,14.60
2022-08-25T04:49:18.709Z,17.00
2022-08-25T04:51:47.191Z,18.60
2022-08-25T04:54:17.252Z,22.00
2022-08-25T04:56:45.279Z,18.90
2022-08-25T04:59:15.908Z,27.00
2022-08-25T05:01:47.358Z,19.40
2022-08-25T05:06:58.665Z,21.70
2022-08-25T05:09:27.183Z,21.10
2022-08-25T05:11:55.922Z,21.40
2022-08-25T05:14:26.414Z,22.60
2022-08-25T05:16:55.857Z,19.70
2022-08-25T05:19:26.654Z,20.70
2022-08-25T05:21:54.484Z,18.60
2022-08-25T05:24:22.518Z,19.10
2022-08-25T05:26:50.591Z,25.20
2022-08-25T05:29:18.561Z,25.20
2022-08-25T05:31:50.419Z,23.00
2022-08-25T05:34:20.152Z,30.70
2022-08-25T05:36:49.120Z,27.70
2022-08-25T05:39:17.089Z,25.50
2022-08-25T05:41:44.958Z,27.30
2022-08-25T05:44:15.853Z,25.70
2022-08-25T05:46:45.918Z,24.60
2022-08-25T05:49:13.774Z,30.60
2022-08-25T05:51:41.646Z,27.10
2022-08-25T05:54:09.504Z,20.70
2022-08-25T05:56:37.407Z,28.60
2022-08-25T05:59:09.145Z,29.20
2022-08-25T06:01:56.456Z,24.80
2022-08-25T06:04:24.676Z,24.90
2022-08-25T06:06:55.118Z,27.20
2022-08-25T06:09:24.407Z,21.00
2022-08-25T06:11:55.010Z,26.40
2022-08-25T06:14:24.891Z,25.60
2022-08-25T06:16:53.369Z,24.00
2022-08-25T06:19:23.516Z,24.80
2022-08-25T06:21:54.944Z,24.90
2022-08-25T06:24:24.442Z,30.60
2022-08-25T06:26:53.256Z,30.40
2022-08-25T06:29:21.504Z,23.30
2022-08-25T06:31:50.271Z,30.90
2022-08-25T06:34:19.288Z,29.20
2022-08-25T06:36:48.750Z,29.70
2022-08-25T06:39:17.791Z,26.20
2022-08-25T06:41:45.853Z,31.20
2022-08-25T06:44:13.720Z,25.90
2022-08-25T06:46:41.524Z,25.60
2022-08-25T06:49:09.447Z,19.60
2022-08-25T06:51:37.442Z,25.40
2022-08-25T06:54:12.563Z,27.70
2022-08-25T06:56:41.863Z,22.50
2022-08-25T06:59:11.221Z,31.80
2022-08-25T07:01:39.655Z,30.70
2022-08-25T07:04:12.965Z,29.70
2022-08-25T07:06:41.854Z,30.20
2022-08-25T07:09:11.658Z,22.10
2022-08-25T07:11:40.726Z,26.40
2022-08-25T07:14:11.972Z,19.80
2022-08-25T07:16:43.167Z,24.20
2022-08-25T07:19:16.911Z,27.10
2022-08-25T07:21:47.137Z,23.10
2022-08-25T07:24:18.186Z,28.20
2022-08-25T07:26:47.067Z,27.40
2022-08-25T07:29:32.174Z,31.00
2022-08-25T07:32:02.502Z,24.70
2022-08-25T07:34:52.241Z,23.30
2022-08-25T07:37:48.450Z,23.50
2022-08-25T07:40:15.636Z,35.40
2022-08-25T07:42:44.426Z,23.60
2022-08-25T07:45:13.913Z,25.80
2022-08-25T07:47:45.467Z,25.50
2022-08-25T07:50:14.588Z,22.90
2022-08-25T07:52:42.728Z,21.40
2022-08-25T07:55:11.464Z,26.10
2022-08-25T07:57:41.750Z,33.40
2022-08-25T08:00:11.322Z,34.20
2022-08-25T08:02:40.859Z,31.60
2022-08-25T08:05:10.518Z,24.20
2022-08-25T08:07:42.376Z,25.90
2022-08-25T08:13:03.246Z,34.50
2022-08-25T08:15:31.304Z,24.00
2022-08-25T08:18:00.413Z,22.00
2022-08-25T08:20:29.138Z,27.60
2022-08-25T08:22:57.362Z,28.90
2022-08-25T08:25:27.108Z,29.90
2022-08-25T08:27:56.704Z,30.90
2022-08-25T08:30:26.214Z,34.00
2022-08-25T08:33:11.996Z,27.40
2022-08-25T08:35:41.982Z,29.80
2022-08-25T08:38:16.203Z,23.90
2022-08-25T08:41:40.213Z,21.50
2022-08-25T08:44:47.878Z,29.00
2022-08-25T08:47:52.932Z,19.80
2022-08-25T08:50:29.570Z,35.60
2022-08-25T08:53:24.587Z,25.10
2022-08-25T08:56:07.079Z,27.20
2022-08-25T08:58:49.883Z,19.30
2022-08-25T09:01:26.761Z,27.10
2022-08-25T09:04:28.188Z,26.80
2022-08-25T09:06:59.202Z,32.20
2022-08-25T09:09:35.707Z,29.70
2022-08-25T09:12:20.002Z,27.40
2022-08-25T09:15:12.601Z,26.10
2022-08-25T09:18:23.619Z,27.60
2022-08-25T09:21:00.534Z,29.20
2022-08-25T09:23:40.863Z,33.80
2022-08-25T09:26:30.443Z,28.40
2022-08-25T09:29:07.457Z,31.00
2022-08-25T09:31:45.268Z,28.90
2022-08-25T09:34:19.427Z,33.80
2022-08-25T09:36:48.931Z,37.80
2022-08-25T09:39:16.911Z,29.10
2022-08-25T09:41:52.231Z,26.60
2022-08-25T09:44:27.822Z,21.80
2022-08-25T09:47:23.852Z,27.10
2022-08-25T09:50:05.307Z,27.50
2022-08-25T09:52:41.440Z,25.40
2022-08-25T09:55:13.146Z,22.90
2022-08-25T09:57:46.945Z,30.10
2022-08-25T10:00:15.545Z,25.20
2022-08-25T10:03:00.445Z,29.90
2022-08-25T10:05:38.567Z,32.00
2022-08-25T10:08:26.302Z,23.10
2022-08-25T10:10:57.751Z,32.30
2022-08-25T10:14:01.761Z,25.70
2022-08-25T10:16:36.134Z,32.20
2022-08-25T10:19:07.531Z,33.60
2022-08-25T10:21:38.570Z,26.60
2022-08-25T10:24:09.714Z,29.30
2022-08-25T10:27:03.481Z,25.80
2022-08-25T10:29:41.489Z,25.40
2022-08-25T10:32:18.978Z,27.80
2022-08-25T10:34:56.357Z,36.80
2022-08-25T10:37:24.276Z,27.00
2022-08-25T10:40:01.000Z,28.80
2022-08-25T10:42:42.688Z,26.50
2022-08-25T10:45:42.510Z,27.10
2022-08-25T10:48:38.039Z,26.90
2022-08-25T10:51:43.479Z,26.30
2022-08-25T10:54:14.004Z,27.40
2022-08-25T10:56:46.679Z,34.20
2022-08-25T10:59:27.138Z,26.70
2022-08-25T11:02:16.202Z,29.20
2022-08-25T11:05:03.048Z,28.70
2022-08-25T11:07:38.257Z,25.90
2022-08-25T11:10:15.293Z,27.00
2022-08-25T11:12:52.210Z,22.70
2022-08-25T11:15:29.283Z,24.00
2022-08-25T11:18:03.923Z,21.80
2022-08-25T11:20:38.132Z,26.60
2022-08-25T11:23:28.115Z,22.90
2022-08-25T11:26:11.732Z,19.30
2022-08-25T11:29:03.836Z,25.80
2022-08-25T11:31:39.939Z,27.80
2022-08-25T11:34:15.488Z,24.10
2022-08-25T11:37:14.794Z,20.20
2022-08-25T11:40:01.333Z,17.10
2022-08-25T11:42:45.679Z,21.10
2022-08-25T11:45:45.864Z,15.10
2022-08-25T11:48:22.854Z,14.60
2022-08-25T11:51:12.731Z,9.70
2022-08-25T11:53:43.564Z,8.90
2022-08-25T11:56:34.687Z,9.80
2022-08-25T11:59:04.691Z,11.30
2022-08-25T12:01:35.732Z,12.80
2022-08-25T12:04:34.055Z,11.60
2022-08-25T12:07:10.789Z,10.00
2022-08-25T12:09:51.141Z,15.30
2022-08-25T12:12:40.010Z,9.40
2022-08-25T12:15:27.220Z,11.80
2022-08-25T12:18:09.063Z,7.20
2022-08-25T12:20:56.539Z,8.50
2022-08-25T12:23:45.268Z,14.20
2022-08-25T12:26:42.304Z,6.90
2022-08-25T12:29:50.837Z,8.30
2022-08-25T12:32:40.191Z,10.50
2022-08-25T12:35:20.080Z,10.70
2022-08-25T12:38:13.993Z,13.10
2022-08-25T12:40:45.401Z,10.00
2022-08-25T12:43:37.548Z,7.90
2022-08-25T12:46:21.804Z,9.50
2022-08-25T12:48:59.601Z,11.60
2022-08-25T12:51:49.981Z,7.70
2022-08-25T12:54:36.281Z,10.70
2022-08-25T12:57:25.001Z,8.70
2022-08-25T13:00:01.952Z,9.40
2022-08-25T13:02:45.084Z,8.00
2022-08-25T13:05:36.776Z,10.70
2022-08-25T13:08:23.980Z,12.80
2022-08-25T13:11:20.213Z,11.00
2022-08-25T13:13:57.843Z,10.70
2022-08-25T13:16:29.894Z,7.90
2022-08-25T13:19:01.699Z,13.00
2022-08-25T13:21:41.704Z,12.70
2022-08-25T13:24:18.256Z,10.60
2022-08-25T13:26:49.017Z,11.90
2022-08-25T13:29:21.589Z,9.20
2022-08-25T13:32:01.398Z,9.20
2022-08-25T13:34:36.632Z,8.30
2022-08-25T13:37:31.444Z,8.40
2022-08-25T13:42:55.923Z,8.40
2022-08-25T13:45:27.817Z,9.30
2022-08-25T13:47:57.269Z,10.80
2022-08-25T13:50:31.147Z,6.60
2022-08-25T13:53:11.552Z,6.70
2022-08-25T13:55:52.272Z,7.10
2022-08-25T13:58:39.190Z,11.10
2022-08-25T14:01:22.264Z,9.00
2022-08-25T14:04:51.606Z,10.30
2022-08-25T14:07:23.195Z,10.50
2022-08-25T14:09:55.499Z,7.10
2022-08-25T14:12:35.767Z,10.20
2022-08-25T14:15:10.362Z,8.70
2022-08-25T14:17:42.687Z,8.70
2022-08-25T14:20:29.240Z,9.10
2022-08-25T14:23:01.814Z,11.40
2022-08-25T14:25:31.453Z,12.00
2022-08-25T14:28:07.171Z,8.50
2022-08-25T14:30:43.454Z,6.00
2022-08-25T14:33:16.339Z,8.30
2022-08-25T14:35:48.402Z,12.20
2022-08-25T14:38:17.911Z,12.10
2022-08-25T14:40:46.285Z,9.30
2022-08-25T14:43:15.900Z,11.20
2022-08-25T14:45:48.232Z,10.50
2022-08-25T14:48:41.047Z,9.00
2022-08-25T14:51:12.459Z,6.90
2022-08-25T14:53:42.169Z,9.20
2022-08-25T14:56:10.971Z,12.10
2022-08-25T14:58:48.328Z,7.20
2022-08-25T15:01:28.985Z,14.40
2022-08-25T15:04:30.211Z,8.30
2022-08-25T15:07:01.404Z,9.30
2022-08-25T15:09:44.534Z,7.40
2022-08-25T15:12:12.546Z,9.40
2022-08-25T15:14:45.685Z,8.60
2022-08-25T15:17:14.678Z,7.50
2022-08-25T15:19:43.358Z,11.50
2022-08-25T15:22:13.795Z,12.70
2022-08-25T15:24:42.249Z,7.00
2022-08-25T15:27:10.467Z,10.10
2022-08-25T15:29:38.517Z,9.60
2022-08-25T15:32:08.630Z,10.80
2022-08-25T15:34:36.937Z,6.40
2022-08-25T15:37:12.080Z,4.30
2022-08-25T15:39:41.852Z,10.00
2022-08-25T15:42:12.837Z,9.50
2022-08-25T15:44:41.353Z,8.80
2022-08-25T15:47:12.625Z,11.30
2022-08-25T15:49:40.693Z,9.30
2022-08-25T15:52:08.658Z,6.50
2022-08-25T15:54:36.520Z,7.20
2022-08-25T15:57:09.139Z,7.90
2022-08-25T15:59:41.065Z,6.30
2022-08-25T16:02:15.182Z,9.60
2022-08-25T16:04:43.345Z,7.40
2022-08-25T16:07:13.224Z,7.80
2022-08-25T16:09:41.945Z,8.40
2022-08-25T16:12:10.323Z,9.70
2022-08-25T16:14:39.315Z,9.00
2022-08-25T16:17:07.903Z,9.70
2022-08-25T16:19:38.093Z,7.10
2022-08-25T16:22:08.754Z,7.50
2022-08-25T16:24:47.266Z,7.60
2022-08-25T16:27:15.574Z,5.20
2022-08-25T16:29:44.746Z,7.70
2022-08-25T16:32:14.553Z,7.90
2022-08-25T16:34:44.217Z,9.90
2022-08-25T16:37:13.683Z,6.60
2022-08-25T16:39:46.099Z,9.00
2022-08-25T16:42:14.514Z,5.50
2022-08-25T16:44:42.685Z,5.70
2022-08-25T16:47:14.154Z,7.90
2022-08-25T16:49:43.386Z,6.60
2022-08-25T16:52:30.352Z,8.40
2022-08-25T16:55:14.443Z,8.20
2022-08-25T16:57:47.665Z,7.50
2022-08-25T17:00:28.579Z,7.40
2022-08-25T17:03:05.063Z,13.30
2022-08-25T17:05:39.585Z,8.20
2022-08-25T17:10:54.219Z,8.60
2022-08-25T17:13:22.102Z,11.60
2022-08-25T17:15:52.463Z,18.70
2022-08-25T17:18:20.817Z,7.10
2022-08-25T17:20:51.297Z,8.70
2022-08-25T17:23:21.076Z,13.50
2022-08-25T17:25:50.263Z,6.10
2022-08-25T17:28:19.003Z,6.60
2022-08-25T17:30:47.059Z,12.70
2022-08-25T18:35:59.680Z,13.20
2022-08-25T18:38:46.289Z,17.30
2022-08-25T18:41:14.254Z,15.90
2022-08-25T18:43:42.222Z,17.70
2022-08-25T18:46:11.189Z,16.00
2022-08-25T18:48:39.187Z,18.60
2022-08-25T18:51:10.487Z,18.90
2022-08-25T18:53:49.693Z,15.70
2022-08-25T18:56:19.575Z,12.20
2022-08-25T18:58:47.958Z,10.70
2022-08-25T19:01:17.427Z,15.20
2022-08-25T19:03:46.695Z,12.10
2022-08-25T19:06:17.386Z,10.50
2022-08-25T19:08:47.302Z,11.00
2022-08-25T19:11:16.131Z,14.10
2022-08-25T19:13:44.659Z,8.20
2022-08-25T19:16:20.567Z,9.80
2022-08-25T19:18:52.150Z,16.60
2022-08-25T19:21:23.734Z,14.60
2022-08-25T19:23:53.156Z,23.00
2022-08-25T19:26:22.228Z,18.00
2022-08-25T19:28:50.996Z,18.40
2022-08-25T19:31:21.998Z,14.80
2022-08-25T19:33:52.784Z,10.90
2022-08-25T19:36:24.581Z,11.50
2022-08-25T19:41:28.089Z,9.40
2022-08-25T19:43:57.765Z,7.50
2022-08-25T19:46:32.871Z,10.30
2022-08-25T19:49:09.984Z,12.50
2022-08-25T19:51:40.102Z,9.70
2022-08-25T19:54:10.292Z,10.40
2022-08-25T19:56:54.027Z,9.20
2022-08-25T19:59:34.329Z,14.70
2022-08-25T20:02:18.909Z,14.10
2022-08-25T20:04:50.287Z,12.70
2022-08-25T20:07:23.771Z,9.10
2022-08-25T20:09:53.847Z,14.90
2022-08-25T20:12:24.373Z,10.60
2022-08-25T20:14:53.742Z,15.70
2022-08-25T20:17:28.207Z,21.30
2022-08-25T20:20:00.157Z,15.60
2022-08-25T20:22:32.043Z,12.00
2022-08-25T20:25:03.867Z,12.60
2022-08-25T20:27:45.015Z,8.80
2022-08-25T20:30:23.559Z,10.90
2022-08-25T20:32:53.782Z,14.70
2022-08-25T20:35:26.603Z,9.30
2022-08-25T20:37:56.866Z,8.40
2022-08-25T20:40:27.251Z,9.80
2022-08-25T20:42:57.462Z,14.80
2022-08-25T20:45:25.399Z,14.30
2022-08-25T20:47:53.366Z,13.50
2022-08-25T20:50:23.692Z,9.00
2022-08-25T20:52:54.422Z,8.50
2022-08-25T20:55:22.469Z,9.70
2022-08-25T20:57:50.354Z,15.60
2022-08-25T21:00:19.766Z,10.20
2022-08-25T21:02:52.578Z,18.80
2022-08-25T21:05:20.725Z,21.00
2022-08-25T21:07:49.006Z,15.60
2022-08-25T21:10:18.298Z,16.60
2022-08-25T21:12:46.268Z,14.70
2022-08-25T21:15:17.967Z,15.00
2022-08-25T21:17:54.433Z,14.50
2022-08-25T21:20:24.160Z,13.70
2022-08-25T21:22:53.300Z,11.40
2022-08-25T21:25:21.994Z,10.50
2022-08-25T21:27:49.941Z,9.60
2022-08-25T21:30:18.527Z,14.80
2022-08-25T21:32:53.658Z,9.90
2022-08-25T21:35:24.694Z,7.50
2022-08-25T21:37:53.865Z,10.40
2022-08-25T21:40:23.275Z,8.20
2022-08-25T21:42:52.577Z,10.50
2022-08-25T21:45:21.923Z,10.60
2022-08-25T21:47:51.875Z,10.80
2022-08-25T21:50:21.111Z,16.10
2022-08-25T21:52:54.423Z,18.00
2022-08-25T21:55:23.708Z,14.70
2022-08-25T21:57:52.698Z,13.10
2022-08-25T22:00:22.820Z,9.90
2022-08-25T22:02:51.382Z,11.20
2022-08-25T22:05:19.264Z,9.70
2022-08-25T22:07:48.149Z,10.20
2022-08-25T22:10:16.513Z,8.60
2022-08-25T22:12:46.801Z,8.90
2022-08-25T22:15:17.835Z,12.40
2022-08-25T22:17:48.179Z,11.10
2022-08-25T22:20:18.436Z,8.20
2022-08-25T22:22:46.399Z,11.00
2022-08-25T22:25:14.984Z,17.50
2022-08-25T22:27:43.170Z,10.50
2022-08-25T22:30:13.769Z,12.70
2022-08-25T22:32:41.653Z,12.00
2022-08-25T22:35:10.341Z,8.70
2022-08-25T22:37:38.136Z,13.40
2022-08-25T22:40:09.256Z,11.60
2022-08-25T22:42:37.025Z,12.50
2022-08-25T22:45:05.536Z,15.90
2022-08-25T22:47:33.967Z,8.70
2022-08-25T22:50:01.937Z,16.30
2022-08-25T22:52:33.622Z,7.20
2022-08-25T22:55:03.229Z,10.50
2022-08-25T22:57:32.189Z,10.00
2022-08-25T23:00:00.465Z,13.00
2022-08-25T23:02:30.316Z,12.20
2022-08-25T23:05:00.955Z,11.80
2022-08-25T23:07:29.776Z,8.40
2022-08-25T23:10:03.500Z,10.90
2022-08-25T23:12:32.488Z,10.70
2022-08-25T23:15:00.868Z,8.70
2022-08-25T23:17:31.810Z,17.60
2022-08-25T23:19:59.714Z,14.80
2022-08-25T23:22:28.904Z,11.30
2022-08-25T23:24:56.976Z,16.30
2022-08-25T23:27:25.048Z,8.90
2022-08-25T23:29:52.977Z,10.80
2022-08-25T23:32:20.748Z,9.20
2022-08-25T23:34:48.764Z,11.20
2022-08-25T23:37:18.655Z,12.30
2022-08-25T23:39:49.663Z,12.10
2022-08-25T23:42:20.149Z,8.70
2022-08-25T23:44:49.489Z,12.30
2022-08-25T23:47:18.502Z,10.20
2022-08-25T23:49:48.598Z,11.60
2022-08-25T23:52:17.843Z,10.50
2022-08-25T23:54:46.964Z,9.20
2022-08-25T23:57:15.274Z,12.80
2022-08-25T23:59:43.515Z,10.20
